TOURFACTS.DK  
Stats and Facts from Tour de France.

Tour de France 2019 starts in 348 days
  Riders   Stages   Teams   Summits   Yearly  


 
Search by year

After 2018 - Stage 14:
 15000 starters.
  5163 different riders.
  639 teams.
  2246 stages.
  456 restdays.
  441957.60 km.
  5678 abandonnees.


Top 3
GC
Christopher Froome86:20:55
Rigoberto Urán86:21:49
Romain Bardet86:23:15
Climb
Warren Barguil169 pt.
Primoz Roglic80 pt.
Thomas De Gendt64 pt.
Sprint
Michael Matthews359 pt.
André Greipel234 pt.
Edvald Boasson Hagen220 pt.
Youth
Simon Yates86:27:09
Louis Meintjes86:29:15
Emanuel Buchmann86:54:16
Facts from Tour de France 1990
  |   Stages.  |   Stage winners.  |   Days in yellow  |   Average speed.  |   Route.  |   Teams.  |   All riders.  |   Rookies.  |  

  |   Withdrawls.  |   GC.  |   Polka  |   Green  |   White  |   Summits. (In tour)  |   Miscellaneous.  |  

Stage 19 on July 20th. 1990
         Owning:    Claudio Chiappucci    
Pick a stage:  Pro 1 2 3 4 5 6 7 8 9 10 11 12 13 14 15 16 17 18 19 20 21
From: Castillon-la-Bataille    To: LimogesDist:182.50 km.
Cat: 4Côte de Champs RomainDENTony Rominger
5 points
 
Cat: 4Côte de Aixe-sur-VienneITAGuido Bontempi
5 points
 

Average speed for all riders in stage:  34,014 km./hr.
    Place:Name:Team:Time:Km/h:
ITAGuido BontempiITACarrera Jeans-Vagabond05:16:04  +  00:00:00=34,645 
NORDag Otto LauritzenUSA7-Eleven-Hoonved05:17:32  +  00:01:28=34,485 
BELPeter RoesBELLotto-Superclub05:17:32  +  00:01:28=34,485 
4 ITARoberto GusmeroliITAChateau d'Ax05:17:36  +  00:01:32=34,477 
5 NEDJelle NijdamNLDBuckler05:18:10  +  00:02:06=34,416 
6 NEDAdri Van Der PoelCHEWeinmann-La Suisse-S.M.M. Uste..05:18:10  +  00:02:06=34,416 
7 CANSteve BauerUSA7-Eleven-Hoonved05:18:10  +  00:02:06=34,416 
8 GERAndreas KappesNLDToshiba05:18:10  +  00:02:06=34,416 
9 NEDMaarten DucrotNLDTVM05:18:19  +  00:02:15=34,400 
10 NEDEdwig Van HooydonckNLDBuckler05:18:48  +  00:02:44=34,348 
11 DENTony RomingerITAChateau d'Ax05:18:49  +  00:02:45=34,346 
12 URSViatcheslav EkimovNLDPanasonic-Sportlife05:18:57  +  00:02:53=34,331 
13 DENBrian HolmBELHistor-Sigma05:18:57  +  00:02:53=34,331 
14 BELMichel DerniesCHEWeinmann-La Suisse-S.M.M. Uste..05:18:57  +  00:02:53=34,331 
15 FRARonan PensecFRAZ-Peugeot05:18:57  +  00:02:53=34,331 
16 ESPPello RuizESPO.N.C.E.05:18:57  +  00:02:53=34,331 
17 FRAThierry LaurentFRAR.M.O.-Mavic-Liberia05:18:57  +  00:02:53=34,331 
18 COLPablo HernandezCOLRyalcao-Postobon05:18:57  +  00:02:53=34,331 
19 NEDToine PoelsNLDBuckler05:18:57  +  00:02:53=34,331 
20 NEDJos Van AertNLDPDM-Concorde05:18:57  +  00:02:53=34,331 
21 ESPAnselmo FuerteESPO.N.C.E.05:20:03  +  00:03:59=34,213 
22 ESPJesús RosadoESPKelme-Ibexpress05:20:06  +  00:04:02=34,208 
23 BELMichel VermoteFRAR.M.O.-Mavic-Liberia05:20:54  +  00:04:50=34,123 
24 BELPeter De ClercqBELLotto-Superclub05:20:55  +  00:04:51=34,121 
25 URSDimitri KonychevITAAlfa Lum05:22:08  +  00:06:04=33,992 
26 ITAClaudio ChiappucciITACarrera Jeans-Vagabond05:22:08  +  00:06:04=33,992 
27 USAGreg LeMondFRAZ-Peugeot05:22:08  +  00:06:04=33,992 
28 FRAJean-Claude ColottiFRAR.M.O.-Mavic-Liberia05:22:08  +  00:06:04=33,992 
29 IRLSean KellyNLDPDM-Concorde05:22:08  +  00:06:04=33,992 
30 PORJosé FerreiraFRASeur05:22:08  +  00:06:04=33,992 
31 COLWilliam PulidoCOLRyalcao-Postobon05:22:08  +  00:06:04=33,992 
32 FRAFabrice PhilipotFRACastorama-Raleigh05:22:08  +  00:06:04=33,992 
33 SUIGianni BugnoITAChateau d'Ax05:22:08  +  00:06:04=33,992 
34 BELClaude CriquielionBELLotto-Superclub05:22:08  +  00:06:04=33,992 
35 NEDErik BreukinkNLDPDM-Concorde05:22:08  +  00:06:04=33,992 
36 ESPEduardo ChozasESPO.N.C.E.05:22:08  +  00:06:04=33,992 
37 FRAPascal LinoFRAR.M.O.-Mavic-Liberia05:22:08  +  00:06:04=33,992 
38 URSPiotr UgrumovITAAlfa Lum05:22:08  +  00:06:04=33,992 
39 BELPatrick RobeetCHEWeinmann-La Suisse-S.M.M. Uste..05:22:08  +  00:06:04=33,992 
40 ESPPedro DelgadoESPBanesto05:22:08  +  00:06:04=33,992 
41 FRAGilles DelionCHEHelvetia-La Suisse05:22:08  +  00:06:04=33,992 
42 ESPRaúl AlcaláNLDPDM-Concorde05:22:08  +  00:06:04=33,992 
43 COLWilliam PalacioCOLRyalcao-Postobon05:22:08  +  00:06:04=33,992 
44 ESPMarino LejarretaESPO.N.C.E.05:22:08  +  00:06:04=33,992 
45 ITAAlessandro GiannelliITACarrera Jeans-Vagabond05:22:08  +  00:06:04=33,992 
46 FRAJerôme SimonFRAZ-Peugeot05:22:08  +  00:06:04=33,992 
47 ENGPhil AndersonNLDTVM05:22:08  +  00:06:04=33,992 
48 SUIJörg MüllerNLDTVM05:22:08  +  00:06:04=33,992 
49 IRLStephen RocheBELHistor-Sigma05:22:08  +  00:06:04=33,992 
50 ESPVicente RidauraFRASeur05:22:08  +  00:06:04=33,992 
51 DDRUwe RaabNLDPDM-Concorde05:22:08  +  00:06:04=33,992 
52 ESPJuan MartinezESPBanesto05:22:08  +  00:06:04=33,992 
53 COLOscar VargasCOLRyalcao-Postobon05:22:08  +  00:06:04=33,992 
54 FRALuc LeblancFRACastorama-Raleigh05:22:08  +  00:06:04=33,992 
55 SUIMauro GianettiCHEHelvetia-La Suisse05:22:08  +  00:06:04=33,992 
56 COLFabio Parra PintoESPKelme-Ibexpress05:22:08  +  00:06:04=33,992 
57 ITAValerio PivaITAAriostea05:22:08  +  00:06:04=33,992 
58 USAAndy HampstenUSA7-Eleven-Hoonved05:22:08  +  00:06:04=33,992 
59 NORAtle KvålsvollFRAZ-Peugeot05:22:08  +  00:06:04=33,992 
60 AUSStephen HodgeESPO.N.C.E.05:22:08  +  00:06:04=33,992 
61 ESPMiguel IndurainESPBanesto05:22:08  +  00:06:04=33,992 
62 NEDSteven RooksNLDPanasonic-Sportlife05:22:08  +  00:06:04=33,992 
63 BELJos HaexBELLotto-Superclub05:22:08  +  00:06:04=33,992 
64 ESPHerminio ZabalaESPO.N.C.E.05:22:08  +  00:06:04=33,992 
65 BELJohan BruyneelBELLotto-Superclub05:22:08  +  00:06:04=33,992 
66 BELPaul HaghedoorenBELHistor-Sigma05:22:08  +  00:06:04=33,992 
67 ITARoberto ContiITAAriostea05:22:08  +  00:06:04=33,992 
68 ITABruno CenghialtaITAAriostea05:22:08  +  00:06:04=33,992 
69 BELRudy DhaenensNLDPDM-Concorde05:22:08  +  00:06:04=33,992 
70 ENGMaximilian SciandriITACarrera Jeans-Vagabond05:22:08  +  00:06:04=33,992 
71 FRABruno CornilletFRAZ-Peugeot05:22:08  +  00:06:04=33,992 
72 DENSøren LilholtBELHistor-Sigma05:22:08  +  00:06:04=33,992 
73 NEDGerrit De VriesNLDBuckler05:22:08  +  00:06:04=33,992 
74 NEDFrans MaassenNLDBuckler05:22:08  +  00:06:04=33,992 
75 FRAVincent BarteauFRACastorama-Raleigh05:22:08  +  00:06:04=33,992 
76 DDRJan SchurITAChateau d'Ax05:22:08  +  00:06:04=33,992 
77 ITAMassimo GhirottoITACarrera Jeans-Vagabond05:22:08  +  00:06:04=33,992 
78 FRAGilbert Duclos-LassalleFRAZ-Peugeot05:22:08  +  00:06:04=33,992 
79 ITAAdriano BaffiITAAriostea05:22:08  +  00:06:04=33,992 
80 COLAlvaro MejiaCOLRyalcao-Postobon05:22:08  +  00:06:04=33,992 
81 NEDJan SiemonsNLDTVM05:22:08  +  00:06:04=33,992 
82 FRAJean-Claude BagotFRAR.M.O.-Mavic-Liberia05:22:08  +  00:06:04=33,992 
83 DDRMario KummerITAChateau d'Ax05:22:08  +  00:06:04=33,992 
84 BELJan GoessensCHEWeinmann-La Suisse-S.M.M. Uste..05:22:08  +  00:06:04=33,992 
85 BELMarc SergeantNLDPanasonic-Sportlife05:22:08  +  00:06:04=33,992 
86 FRAThierry ClaveyrolatFRAR.M.O.-Mavic-Liberia05:22:08  +  00:06:04=33,992 
87 BELGuy NulensNLDPanasonic-Sportlife05:22:08  +  00:06:04=33,992 
88 FRAPascal SimonFRACastorama-Raleigh05:22:08  +  00:06:04=33,992 
89 ITAAlberto VolpiITAChateau d'Ax05:22:08  +  00:06:04=33,992 
90 COLGerardo MoncadaCOLRyalcao-Postobon05:22:08  +  00:06:04=33,992 
91 URSDjamolidine AbduzhaparovITAAlfa Lum05:22:08  +  00:06:04=33,992 
92 COLNéstor MoraESPKelme-Ibexpress05:22:08  +  00:06:04=33,992 
93 COLAbelardo RondonESPBanesto05:22:08  +  00:06:04=33,992 
94 ITAAlberto ElliITAAriostea05:22:08  +  00:06:04=33,992 
95 ITADavide CassaniITAAriostea05:22:08  +  00:06:04=33,992 
96 FRADominique ArnaudESPBanesto05:22:08  +  00:06:04=33,992 
97 ESPJosé UreaFRASeur05:22:08  +  00:06:04=33,992 
98 COLJuan CastilloCOLRyalcao-Postobon05:22:08  +  00:06:04=33,992 
99 USANorman AlvisUSA7-Eleven-Hoonved05:22:08  +  00:06:04=33,992 
100 FRALaurent PillonBELHistor-Sigma05:22:08  +  00:06:04=33,992 
101 FRARoland Le ClercNLDToshiba05:22:08  +  00:06:04=33,992 
102 SUIKurt SteinmannCHEWeinmann-La Suisse-S.M.M. Uste..05:22:08  +  00:06:04=33,992 
103 ITAGiancarlo PeriniITACarrera Jeans-Vagabond05:22:08  +  00:06:04=33,992 
104 FRAChristian ChaubetNLDToshiba05:22:08  +  00:06:04=33,992 
105 FRAFrédéric BrunFRAR.M.O.-Mavic-Liberia05:22:08  +  00:06:04=33,992 
106 FRAPascal LanceNLDToshiba05:22:08  +  00:06:04=33,992 
107 SUIBeat BreuCHEWeinmann-La Suisse-S.M.M. Uste..05:22:08  +  00:06:04=33,992 
108 ESPJesus RodriguezESPBanesto05:22:08  +  00:06:04=33,992 
109 ESPMelchor MauriESPO.N.C.E.05:22:08  +  00:06:04=33,992 
110 USARonald KiefelUSA7-Eleven-Hoonved05:22:08  +  00:06:04=33,992 
111 ENGSean YatesUSA7-Eleven-Hoonved05:22:08  +  00:06:04=33,992 
112 ESPPablo MorenoFRASeur05:22:08  +  00:06:04=33,992 
113 URSVasily ZhdanovITAAlfa Lum05:22:08  +  00:06:04=33,992 
114 FRADenis RouxNLDToshiba05:22:08  +  00:06:04=33,992 
115 FRAÉric BoyerFRAZ-Peugeot05:22:08  +  00:06:04=33,992 
116 FRAFrançois LemarchandFRAZ-Peugeot05:22:08  +  00:06:04=33,992 
117 DDROlaf LudwigNLDPanasonic-Sportlife05:22:08  +  00:06:04=33,992 
118 FRALaurent BiondiBELHistor-Sigma05:22:08  +  00:06:04=33,992 
119 FRAJean-Claude LeclercqCHEHelvetia-La Suisse05:22:08  +  00:06:04=33,992 
120 PORAcacio da SilvaITACarrera Jeans-Vagabond05:22:08  +  00:06:04=33,992 
121 ESPMiguel Angel MartinezESPO.N.C.E.05:22:08  +  00:06:04=33,992 
122 URSAlexandre TrubineITAAlfa Lum05:22:08  +  00:06:04=33,992 
123 FRAPhilippe LouviotNLDToshiba05:22:08  +  00:06:04=33,992 
124 COLNelson RodriguezESPKelme-Ibexpress05:22:08  +  00:06:04=33,992 
125 ITAGiuseppe SaronniESPKelme-Ibexpress05:22:08  +  00:06:04=33,992 
126 NEDHenri MandersCHEHelvetia-La Suisse05:22:08  +  00:06:04=33,992 
127 COLReynel MontoyaCOLRyalcao-Postobon05:22:08  +  00:06:04=33,992 
128 ITAMarcello SiboniITAAriostea05:22:08  +  00:06:04=33,992 
129 URSNikolai GolovatenkoITAAlfa Lum05:22:08  +  00:06:04=33,992 
130 USAAndrew BishopUSA7-Eleven-Hoonved05:22:08  +  00:06:04=33,992 
131 NEDMartin SchalkersNLDTVM05:22:08  +  00:06:04=33,992 
132 ITAGiovanni FidanzaITAChateau d'Ax05:22:08  +  00:06:04=33,992 
133 COLCarlos JaramilloCOLRyalcao-Postobon05:22:08  +  00:06:04=33,992 
134 SUIErich MächlerITACarrera Jeans-Vagabond05:22:08  +  00:06:04=33,992 
135 BELJohan MuseeuwBELLotto-Superclub05:22:08  +  00:06:04=33,992 
136 BELWillem Van EyndeBELLotto-Superclub05:22:08  +  00:06:04=33,992 
137 BELEric Van LanckerNLDPanasonic-Sportlife05:22:08  +  00:06:04=33,992 
138 ESPMarino MonjeESPBanesto05:22:08  +  00:06:04=33,992 
139 NEDJean-Paul van PoppelNLDPanasonic-Sportlife05:22:08  +  00:06:04=33,992 
140 BELCarlo BomansCHEWeinmann-La Suisse-S.M.M. Uste..05:22:08  +  00:06:04=33,992 
141 ITAGuiseppe CalcaterraITAChateau d'Ax05:22:08  +  00:06:04=33,992 
142 ITAMauro-Antonio SantaromitaITAChateau d'Ax05:22:08  +  00:06:04=33,992 
143 NEDGert JakobsNLDPDM-Concorde05:22:08  +  00:06:04=33,992 
144 NEDPatrick TolhoekNLDBuckler05:22:56  +  00:06:52=33,908 
145 FRACharly MottetFRAR.M.O.-Mavic-Liberia05:22:59  +  00:06:55=33,903 
146 ITARodolfo MassiITAAriostea05:22:59  +  00:06:55=33,903 
147 USABob RollUSA7-Eleven-Hoonved05:23:17  +  00:07:13=33,871 
148 NEDGerrit SolleveldNLDBuckler05:26:12  +  00:10:08=33,568 
149 SUIThomas WegmüllerCHEWeinmann-La Suisse-S.M.M. Uste..05:26:12  +  00:10:08=33,568 
150 ESPAntonio EspejoESPKelme-Ibexpress05:26:12  +  00:10:08=33,568 
151 ESPAntonio DiasESPKelme-Ibexpress05:26:12  +  00:10:08=33,568 
152 FRAThierry MarieFRACastorama-Raleigh05:27:11  +  00:11:07=33,467 
153 BELWilfried PeetersBELHistor-Sigma05:27:11  +  00:11:07=33,467 
154 BELPatrick VerschuerenBELLotto-Superclub05:27:11  +  00:11:07=33,467 
155 BELHendrik RedantBELLotto-Superclub05:27:11  +  00:11:07=33,467 
156 USADavis PhinneyUSA7-Eleven-Hoonved05:30:35  +  00:14:31=33,123 

Withdrawls: 1
 
Rider
Team
Reason
116  SUIHans-Rüdi MärkiCHEHelvetia-La SuisseDid not finish

Todays birthdays.

1877  Antoine Perrichon
1878  Auguste Berthault
1911  Théo Herckenrath
1924  Carlo Lafranchi
1931  Armand Di Caro
1937  Jean-Claude Lebaube
1951  Giovanni Battaglin
1961  Pascal Jules
1962  Jean-Claude Leclercq
1976  Janek Tombak
1978  Francisco Pérez
1983  Dries Devenyns




Visits: